createdAt,value
2016-06-06T08:40:03.996Z,965.53
2016-06-06T08:41:03.999Z,965.51
2016-06-06T08:42:04.002Z,965.55
2016-06-06T08:43:04.020Z,965.58
2016-06-06T08:44:04.038Z,965.5
2016-06-06T08:45:04.041Z,965.57
2016-06-06T08:46:04.043Z,965.51
2016-06-06T08:47:04.061Z,965.5
2016-06-06T08:48:04.064Z,965.53
2016-06-06T08:49:04.083Z,965.57
2016-06-06T08:50:04.085Z,965.56
2016-06-06T08:51:04.119Z,965.56
2016-06-06T08:52:04.107Z,965.56
2016-06-06T08:53:04.124Z,965.53
2016-06-06T08:54:04.127Z,965.52
2016-06-06T08:55:04.146Z,965.52
2016-06-06T08:56:04.148Z,965.55
2016-06-06T08:57:04.151Z,965.53
2016-06-06T08:58:04.169Z,965.53
2016-06-06T08:59:04.173Z,965.52
2016-06-06T09:00:04.190Z,965.53
2016-06-06T09:01:04.209Z,965.53
2016-06-06T09:02:04.212Z,965.51
2016-06-06T09:03:04.229Z,965.51
2016-06-06T09:04:04.232Z,965.51
2016-06-06T09:05:04.251Z,965.48
2016-06-06T09:06:04.253Z,965.49
2016-06-06T09:07:04.256Z,965.51
2016-06-06T09:08:04.274Z,965.52
2016-06-06T09:09:04.278Z,965.5
2016-06-06T09:10:04.295Z,965.52
2016-06-06T09:11:04.298Z,965.54
2016-06-06T09:12:04.301Z,965.55
2016-06-06T09:13:04.319Z,965.54
2016-06-06T09:14:04.525Z,965.54
2016-06-06T09:15:04.340Z,965.54
2016-06-06T09:16:04.343Z,965.57
2016-06-06T09:17:04.361Z,965.53
2016-06-06T09:18:04.364Z,965.54
2016-06-06T09:19:04.382Z,965.54
2016-06-06T09:20:04.385Z,965.58
2016-06-06T09:21:04.419Z,965.58
2016-06-06T09:22:04.405Z,965.53
2016-06-06T09:23:04.424Z,965.49
2016-06-06T09:24:04.427Z,965.49
2016-06-06T09:25:04.445Z,965.51
2016-06-06T09:26:04.463Z,965.57
2016-06-06T09:27:04.466Z,965.53
2016-06-06T09:28:04.469Z,965.53
2016-06-06T09:29:04.690Z,965.55
2016-06-06T09:30:04.490Z,965.59
2016-06-06T09:31:04.508Z,965.59
2016-06-06T09:32:04.511Z,965.52
2016-06-06T09:33:04.514Z,965.53
2016-06-06T09:34:04.532Z,965.53
2016-06-06T09:35:04.535Z,965.51
2016-06-06T09:36:04.553Z,965.46
2016-06-06T09:37:04.571Z,965.52
2016-06-06T09:38:04.573Z,965.52
2016-06-06T09:39:04.576Z,965.49
2016-06-06T09:40:04.595Z,965.52
2016-06-06T09:41:04.598Z,965.55
2016-06-06T09:42:04.616Z,965.56
2016-06-06T09:43:04.616Z,965.52
2016-06-06T09:44:04.634Z,965.51
2016-06-06T09:45:04.636Z,965.51
2016-06-06T09:46:04.656Z,965.54
2016-06-06T09:47:04.658Z,965.51
2016-06-06T09:48:04.677Z,965.51
2016-06-06T09:49:04.679Z,965.5
2016-06-06T09:50:04.697Z,965.51
2016-06-06T09:51:04.699Z,965.49
2016-06-06T09:52:04.718Z,965.47
2016-06-06T09:53:04.721Z,965.48
2016-06-06T09:54:04.739Z,965.45
2016-06-06T09:55:04.742Z,965.47
2016-06-06T09:56:04.760Z,965.44
2016-06-06T09:57:04.763Z,965.45
2016-06-06T09:58:04.766Z,965.46
2016-06-06T09:59:04.784Z,965.47
2016-06-06T10:00:04.787Z,965.46
2016-06-06T10:01:04.805Z,965.43
2016-06-06T10:02:04.808Z,965.46
2016-06-06T10:03:04.826Z,965.45
2016-06-06T10:04:04.829Z,965.37
2016-06-06T10:05:04.847Z,965.4
2016-06-06T10:06:04.850Z,965.4
2016-06-06T10:07:04.868Z,965.43
2016-06-06T10:08:04.871Z,965.42
2016-06-06T10:09:04.889Z,965.45
2016-06-06T10:10:04.892Z,965.42
2016-06-06T10:11:04.909Z,965.43
2016-06-06T10:12:04.913Z,965.45
2016-06-06T10:13:04.915Z,965.49
2016-06-06T10:14:04.933Z,965.48
2016-06-06T10:15:04.937Z,965.46
2016-06-06T10:16:04.955Z,965.47
2016-06-06T10:17:04.973Z,965.52
2016-06-06T10:18:04.975Z,965.51
2016-06-06T10:19:04.978Z,965.47
2016-06-06T10:20:04.997Z,965.49
2016-06-06T10:21:05.000Z,965.49
2016-06-06T10:22:05.018Z,965.5
2016-06-06T10:23:05.036Z,965.48
2016-06-06T10:24:05.055Z,965.5
2016-06-06T10:25:05.041Z,965.49
2016-06-06T10:26:05.060Z,965.5
2016-06-06T10:27:05.063Z,965.44
2016-06-06T10:28:05.080Z,965.51
2016-06-06T10:29:05.082Z,965.48
2016-06-06T10:30:05.102Z,965.46
2016-06-06T10:31:05.104Z,965.44
2016-06-06T10:32:05.123Z,965.46
2016-06-06T10:33:05.125Z,965.48
2016-06-06T10:34:05.143Z,965.46
2016-06-06T10:35:05.146Z,965.51
2016-06-06T10:36:05.149Z,965.55
2016-06-06T10:37:05.167Z,965.58
2016-06-06T10:38:05.186Z,965.5
2016-06-06T10:39:05.188Z,965.51
2016-06-06T10:40:05.192Z,965.51
2016-06-06T10:41:05.209Z,965.49
2016-06-06T10:42:05.228Z,965.48
2016-06-06T10:43:05.230Z,965.48
2016-06-06T10:44:05.248Z,965.49
2016-06-06T10:45:05.267Z,965.48
2016-06-06T10:46:05.254Z,965.5
2016-06-06T10:47:05.272Z,965.5
2016-06-06T10:48:05.291Z,965.45
2016-06-06T10:49:05.294Z,965.47
2016-06-06T10:50:05.311Z,965.45
2016-06-06T10:51:05.314Z,965.45
2016-06-06T10:52:05.630Z,965.47
2016-06-06T10:53:05.336Z,965.47
2016-06-06T10:54:05.354Z,965.48
2016-06-06T10:55:05.357Z,965.5
2016-06-06T10:56:05.375Z,965.5
2016-06-06T10:57:05.377Z,965.5
2016-06-06T10:58:05.396Z,965.5
2016-06-06T10:59:05.398Z,965.5
2016-06-06T11:00:05.416Z,965.45
2016-06-06T11:01:05.419Z,965.44
2016-06-06T11:02:05.438Z,965.35
2016-06-06T11:03:05.440Z,965.42
2016-06-06T11:04:05.459Z,965.4
2016-06-06T11:05:05.462Z,965.39
2016-06-06T11:06:05.480Z,965.4
2016-06-06T11:07:05.483Z,965.39
2016-06-06T11:08:05.501Z,965.35
2016-06-06T11:09:05.862Z,965.38
2016-06-06T11:10:05.865Z,965.38
2016-06-06T11:11:05.540Z,965.32
2016-06-06T11:12:05.543Z,965.33
2016-06-06T11:13:05.748Z,965.32
2016-06-06T11:14:05.861Z,965.31
2016-06-06T11:15:05.582Z,965.31
2016-06-06T11:16:05.584Z,965.31
2016-06-06T11:17:05.697Z,965.3
2016-06-06T11:18:05.652Z,965.31
2016-06-06T11:19:05.625Z,965.28
2016-06-06T11:20:05.627Z,965.25
2016-06-06T11:21:05.895Z,965.21
2016-06-06T11:22:05.648Z,965.2
2016-06-06T11:23:05.822Z,965.25
2016-06-06T11:24:05.669Z,965.28
2016-06-06T11:25:05.938Z,965.24
2016-06-06T11:26:06.049Z,965.21
2016-06-06T11:27:05.708Z,965.25
2016-06-06T11:28:06.164Z,965.22
2016-06-06T11:29:05.729Z,965.25
2016-06-06T11:30:05.841Z,965.25
2016-06-06T11:31:05.750Z,965.23
2016-06-06T11:32:05.924Z,965.21
2016-06-06T11:33:05.771Z,965.18
2016-06-06T11:34:05.790Z,965.11
2016-06-06T11:35:05.839Z,965.1
2016-06-06T11:36:06.013Z,965.15
2016-06-06T11:37:05.813Z,965.13
2016-06-06T11:38:05.879Z,965.18
2016-06-06T11:39:05.850Z,965.17
2016-06-06T11:40:05.853Z,965.09
2016-06-06T11:41:05.917Z,965.11
2016-06-06T11:42:05.873Z,965.13
2016-06-06T11:43:05.986Z,965.16
2016-06-06T11:44:05.942Z,965.08
2016-06-06T11:45:06.319Z,965.07
2016-06-06T11:46:05.915Z,965.02
2016-06-06T11:47:05.981Z,965.05
2016-06-06T11:48:05.936Z,965.04
2016-06-06T11:49:05.955Z,965.06
2016-06-06T11:50:05.958Z,965.02
2016-06-06T11:51:05.976Z,965.04
2016-06-06T11:52:05.978Z,965.03
2016-06-06T11:53:06.247Z,965.05
2016-06-06T11:54:06.359Z,965.02
2016-06-06T11:55:06.018Z,965.03
2016-06-06T11:56:06.021Z,965
2016-06-06T11:57:06.039Z,965.08
2016-06-06T11:58:06.088Z,965.06
2016-06-06T11:59:06.060Z,964.99
2016-06-06T12:00:06.265Z,964.92
2016-06-06T12:01:06.081Z,964.94
2016-06-06T12:02:06.240Z,964.97
2016-06-06T12:03:06.101Z,964.97
2016-06-06T12:04:06.308Z,964.91
2016-06-06T12:05:06.124Z,964.9
2016-06-06T12:06:06.126Z,964.88
2016-06-06T12:07:06.237Z,964.85
2016-06-06T12:08:06.147Z,964.89
2016-06-06T12:09:06.321Z,964.87
2016-06-06T12:10:06.276Z,964.9
2016-06-06T12:11:06.187Z,964.87
2016-06-06T12:13:06.207Z,964.86
2016-06-06T12:14:06.226Z,964.86
2016-06-06T12:16:06.246Z,964.83
2016-06-06T12:17:06.593Z,964.85
2016-06-06T12:18:06.408Z,964.81
2016-06-06T12:19:06.270Z,964.81
2016-06-06T12:20:06.289Z,964.76
2016-06-06T12:22:06.309Z,964.74
2016-06-06T12:23:06.422Z,964.75
2016-06-06T12:24:06.533Z,964.8
2016-06-06T12:25:06.333Z,964.78
2016-06-06T12:26:06.351Z,964.76
2016-06-06T12:27:06.557Z,964.7
2016-06-06T12:28:06.372Z,964.74
2016-06-06T12:29:06.390Z,964.76
2016-06-06T12:30:06.393Z,964.79
2016-06-06T12:32:06.618Z,964.79
2016-06-06T12:33:06.417Z,964.76
2016-06-06T12:34:06.435Z,964.8
2016-06-06T12:35:06.546Z,964.72
2016-06-06T12:36:06.457Z,964.73
2016-06-06T12:37:06.521Z,964.7
2016-06-06T12:38:06.477Z,964.68
2016-06-06T12:39:06.495Z,964.69
2016-06-06T12:40:06.498Z,964.67
2016-06-06T12:41:06.517Z,964.69
2016-06-06T12:42:06.520Z,964.69
2016-06-06T12:43:06.522Z,964.66
2016-06-06T12:44:06.541Z,964.72
2016-06-06T12:45:06.559Z,964.67
2016-06-06T12:46:06.623Z,964.69
2016-06-06T12:47:06.579Z,964.63
2016-06-06T12:48:06.582Z,964.67
2016-06-06T12:49:06.601Z,964.6
2016-06-06T12:50:06.619Z,964.57
2016-06-06T12:51:06.622Z,964.56
2016-06-06T12:52:06.625Z,964.53
2016-06-06T12:53:06.642Z,964.5
2016-06-06T12:54:06.661Z,964.55
2016-06-06T12:55:06.664Z,964.55
2016-06-06T12:56:06.683Z,964.59
2016-06-06T12:57:06.685Z,964.59
2016-06-06T12:58:06.702Z,964.53
2016-06-06T12:59:06.721Z,964.61
2016-06-06T13:00:06.724Z,964.58
2016-06-06T13:01:06.727Z,964.64
2016-06-06T13:02:06.745Z,964.59
2016-06-06T13:03:06.763Z,964.58
2016-06-06T13:04:06.766Z,964.6
2016-06-06T13:05:06.784Z,964.56
2016-06-06T13:06:06.788Z,964.59
2016-06-06T13:07:06.790Z,964.56
2016-06-06T13:08:06.807Z,964.57
2016-06-06T13:09:06.827Z,964.52
2016-06-06T13:10:06.829Z,964.55
2016-06-06T13:11:06.848Z,964.57
2016-06-06T13:12:06.850Z,964.52
2016-06-06T13:13:06.868Z,964.54
2016-06-06T13:14:07.559Z,964.51
2016-06-06T13:15:06.890Z,964.54
2016-06-06T13:16:06.892Z,964.51
2016-06-06T13:17:06.910Z,964.46
2016-06-06T13:18:06.928Z,964.47
2016-06-06T13:19:06.931Z,964.45
2016-06-06T13:20:06.934Z,964.45
2016-06-06T13:21:06.968Z,964.46
2016-06-06T13:22:06.970Z,964.46
2016-06-06T13:23:06.973Z,964.51
2016-06-06T13:24:06.976Z,964.49
2016-06-06T13:25:06.994Z,964.51
2016-06-06T13:26:06.997Z,964.53
2016-06-06T13:27:07.016Z,964.51
2016-06-06T13:28:07.018Z,964.5
2016-06-06T13:29:07.099Z,964.45
2016-06-06T13:30:07.055Z,964.41
2016-06-06T13:31:07.057Z,964.38
2016-06-06T13:32:07.060Z,964.43
2016-06-06T13:33:07.094Z,964.44
2016-06-06T13:34:07.096Z,964.45
2016-06-06T13:35:07.130Z,964.4
2016-06-06T13:36:07.118Z,964.44
2016-06-06T13:37:07.121Z,964.39
2016-06-06T13:38:07.138Z,964.46
2016-06-06T13:39:07.141Z,964.4
2016-06-06T13:40:07.160Z,964.4
2016-06-06T13:41:07.162Z,964.45
2016-06-06T13:42:07.181Z,964.4
2016-06-06T13:43:07.198Z,964.38
2016-06-06T13:44:07.218Z,964.43
2016-06-06T13:45:07.236Z,964.4
2016-06-06T13:46:07.223Z,964.4
2016-06-06T13:47:07.225Z,964.41
2016-06-06T13:48:07.244Z,964.36
2016-06-06T13:49:07.246Z,964.39
2016-06-06T13:50:07.264Z,964.39
2016-06-06T13:51:07.267Z,964.4
2016-06-06T13:52:07.301Z,964.36
2016-06-06T13:53:07.304Z,964.34
2016-06-06T13:54:07.306Z,964.32
2016-06-06T13:55:07.325Z,964.33
2016-06-06T13:56:07.328Z,964.33
2016-06-06T13:57:07.330Z,964.36
2016-06-06T13:58:07.349Z,964.3
2016-06-06T13:59:07.351Z,964.26
2016-06-06T14:00:07.369Z,964.26
2016-06-06T14:01:07.435Z,964.27
2016-06-06T14:02:07.391Z,964.26
2016-06-06T14:03:07.394Z,964.23
2016-06-06T14:04:07.411Z,964.25
2016-06-06T14:05:07.414Z,964.25
2016-06-06T14:06:07.433Z,964.25
2016-06-06T14:07:07.436Z,964.24
2016-06-06T14:08:07.454Z,964.22
2016-06-06T14:09:07.472Z,964.21
2016-06-06T14:10:07.474Z,964.22
2016-06-06T14:11:07.477Z,964.18
2016-06-06T14:12:07.496Z,964.17
2016-06-06T14:13:07.499Z,964.18
2016-06-06T14:14:07.517Z,964.17
2016-06-06T14:15:07.660Z,964.16
2016-06-06T14:16:07.538Z,964.13
2016-06-06T14:17:07.541Z,964.14
2016-06-06T14:18:07.559Z,964.18
2016-06-06T14:19:07.561Z,964.17
2016-06-06T14:20:07.579Z,964.14
2016-06-06T14:21:07.598Z,964.18
2016-06-06T14:22:07.600Z,964.16
2016-06-06T14:23:07.619Z,964.15
2016-06-06T14:24:07.622Z,964.18
2016-06-06T14:25:07.640Z,964.13
2016-06-06T14:26:07.643Z,964.12
2016-06-06T14:27:07.661Z,964.07
2016-06-06T14:28:07.663Z,964.11
2016-06-06T14:29:08.292Z,964.1
2016-06-06T14:30:07.685Z,964.07
2016-06-06T14:31:07.702Z,964.06
2016-06-06T14:32:07.706Z,964.05
2016-06-06T14:33:07.724Z,964.04
2016-06-06T14:34:07.727Z,964.05
2016-06-06T14:35:07.729Z,964.02
2016-06-06T14:36:07.747Z,964.03
2016-06-06T14:37:07.782Z,964.01
2016-06-06T14:38:07.769Z,963.98
2016-06-06T14:39:07.787Z,963.97
2016-06-06T14:40:07.791Z,964
2016-06-06T14:41:07.808Z,963.93
2016-06-06T14:42:07.810Z,963.98
2016-06-06T14:43:07.829Z,963.93
2016-06-06T14:44:08.207Z,963.94
2016-06-06T14:45:07.851Z,963.95
2016-06-06T14:46:07.853Z,963.97
2016-06-06T14:47:07.871Z,963.99
2016-06-06T14:48:07.873Z,963.97
2016-06-06T14:49:07.893Z,964.04
2016-06-06T14:50:07.895Z,964.03
2016-06-06T14:51:07.912Z,964.02
2016-06-06T14:52:07.915Z,963.98
2016-06-06T14:53:07.934Z,963.95
2016-06-06T14:54:07.936Z,963.94
2016-06-06T14:55:07.955Z,963.89
2016-06-06T14:56:07.958Z,963.92
2016-06-06T14:57:07.976Z,963.92
2016-06-06T14:58:07.994Z,963.91
2016-06-06T14:59:07.998Z,963.91
2016-06-06T15:00:08.000Z,963.86
2016-06-06T15:01:08.019Z,963.86
2016-06-06T15:02:08.021Z,963.86
2016-06-06T15:03:08.039Z,963.82
2016-06-06T15:04:08.042Z,963.82
2016-06-06T15:05:08.060Z,963.84
2016-06-06T15:06:08.063Z,963.89
2016-06-06T15:07:08.081Z,963.92
2016-06-06T15:08:08.099Z,963.95
2016-06-06T15:09:08.103Z,963.92
2016-06-06T15:10:08.121Z,963.92
2016-06-06T15:11:08.123Z,963.98
2016-06-06T15:12:08.141Z,963.97
2016-06-06T15:13:08.144Z,964
2016-06-06T15:14:08.162Z,963.98
2016-06-06T15:15:08.165Z,963.99
2016-06-06T15:16:08.184Z,963.95
2016-06-06T15:17:08.201Z,963.96
2016-06-06T15:18:08.204Z,963.96
2016-06-06T15:19:08.207Z,963.92
2016-06-06T15:20:08.226Z,963.94
2016-06-06T15:21:08.244Z,963.95
2016-06-06T15:22:08.246Z,963.93
2016-06-06T15:23:08.249Z,963.95
2016-06-06T15:24:08.268Z,963.92
2016-06-06T15:25:08.271Z,963.92
2016-06-06T15:26:08.289Z,963.95
2016-06-06T15:27:08.291Z,963.92
2016-06-06T15:28:08.309Z,963.93
2016-06-06T15:29:08.328Z,963.86
2016-06-06T15:30:08.331Z,963.89
2016-06-06T15:31:08.334Z,963.92
2016-06-06T15:32:08.352Z,963.9
2016-06-06T15:33:08.370Z,963.93
2016-06-06T15:34:08.388Z,963.92
2016-06-06T15:35:08.392Z,963.97
2016-06-06T15:36:08.394Z,963.96
2016-06-06T15:37:08.412Z,963.95
2016-06-06T15:38:08.430Z,963.95
2016-06-06T15:39:08.433Z,963.88
2016-06-06T15:40:08.436Z,963.94
2016-06-06T15:41:08.454Z,963.89
2016-06-06T15:42:08.457Z,963.9
2016-06-06T15:43:08.474Z,963.89
2016-06-06T15:44:08.477Z,963.87
2016-06-06T15:45:08.840Z,963.86
2016-06-06T15:46:08.515Z,963.89
2016-06-06T15:47:08.518Z,963.92
2016-06-06T15:48:08.520Z,963.87
2016-06-06T15:49:08.538Z,963.91
2016-06-06T15:50:08.557Z,963.87
2016-06-06T15:51:08.560Z,963.92
2016-06-06T15:52:08.577Z,963.94
2016-06-06T15:53:08.580Z,963.9
2016-06-06T15:54:08.598Z,963.92
2016-06-06T15:55:08.601Z,963.9
2016-06-06T15:56:08.620Z,963.93
2016-06-06T15:57:08.622Z,963.95
2016-06-06T15:58:08.656Z,963.96
2016-06-06T15:59:08.643Z,963.99
2016-06-06T16:00:08.896Z,963.97
2016-06-06T16:01:08.680Z,963.98
2016-06-06T16:02:08.683Z,963.97
2016-06-06T16:03:08.686Z,964
2016-06-06T16:04:08.703Z,963.97
2016-06-06T16:05:08.706Z,964.01
2016-06-06T16:06:08.725Z,963.98
2016-06-06T16:07:08.727Z,963.97
2016-06-06T16:08:08.761Z,963.98
2016-06-06T16:09:08.748Z,964.02
2016-06-06T16:10:08.767Z,963.98
2016-06-06T16:11:08.785Z,964.02
2016-06-06T16:12:08.788Z,964
2016-06-06T16:13:08.791Z,964.05
2016-06-06T16:14:08.809Z,964.02
2016-06-06T16:15:08.811Z,964.03
2016-06-06T16:16:08.830Z,964.04
2016-06-06T16:17:08.832Z,964.01
2016-06-06T16:18:08.851Z,964.04
2016-06-06T16:19:08.869Z,964.01
2016-06-06T16:20:08.872Z,964.01
2016-06-06T16:21:08.890Z,964.01
2016-06-06T16:22:08.893Z,964.01
2016-06-06T16:23:08.911Z,964.03
2016-06-06T16:24:08.913Z,964.01
2016-06-06T16:25:08.932Z,964
2016-06-06T16:26:08.935Z,963.97
2016-06-06T16:27:08.953Z,963.95
2016-06-06T16:28:08.956Z,963.96
2016-06-06T16:29:08.974Z,964
2016-06-06T16:30:08.976Z,963.97
2016-06-06T16:31:08.995Z,964
2016-06-06T16:32:08.998Z,963.99
2016-06-06T16:33:09.016Z,964.01
2016-06-06T16:34:09.019Z,964.01
2016-06-06T16:35:09.037Z,963.98
2016-06-06T16:36:09.040Z,964
2016-06-06T16:37:09.058Z,963.99
2016-06-06T16:38:09.061Z,964
2016-06-06T16:39:09.079Z,963.97
2016-06-06T16:40:09.081Z,963.99
2016-06-06T16:41:09.100Z,963.97
2016-06-06T16:42:09.103Z,963.96
2016-06-06T16:43:09.126Z,964.01
2016-06-06T16:44:09.134Z,963.99
2016-06-06T16:45:09.156Z,964
2016-06-06T16:46:09.164Z,964.03
2016-06-06T16:47:09.188Z,964.06
2016-06-06T16:48:09.193Z,964.06
2016-06-06T16:49:09.213Z,964.07
2016-06-06T16:50:09.216Z,964.05
2016-06-06T16:51:09.236Z,964.04
2016-06-06T16:52:09.256Z,963.97
2016-06-06T16:53:09.260Z,964.01
2016-06-06T16:54:09.263Z,964.06
2016-06-06T16:55:09.282Z,964.03
2016-06-06T16:56:09.285Z,964.03
2016-06-06T16:57:09.305Z,964.02
2016-06-06T16:58:09.308Z,964.07
2016-06-06T16:59:09.326Z,964.06
2016-06-06T17:00:09.330Z,964.06
2016-06-06T17:01:09.348Z,964.06
2016-06-06T17:02:09.351Z,964.07
2016-06-06T17:03:09.370Z,964.04
2016-06-06T17:04:09.372Z,964.09
2016-06-06T17:05:09.391Z,964.09
2016-06-06T17:06:09.393Z,964.08
2016-06-06T17:07:09.412Z,964.09
2016-06-06T17:08:09.414Z,964.12
2016-06-06T17:09:09.433Z,964.17
2016-06-06T17:10:09.436Z,964.16
2016-06-06T17:11:09.453Z,964.23
2016-06-06T17:12:09.456Z,964.23
2016-06-06T17:13:09.475Z,964.24
2016-06-06T17:14:09.477Z,964.26
2016-06-06T17:15:09.808Z,964.25
2016-06-06T17:16:09.514Z,964.26
2016-06-06T17:17:09.516Z,964.26
2016-06-06T17:18:09.535Z,964.27
2016-06-06T17:19:09.538Z,964.26
2016-06-06T17:20:09.556Z,964.28
2016-06-06T17:21:09.559Z,964.24
2016-06-06T17:22:09.577Z,964.32
2016-06-06T17:23:09.580Z,964.3
2016-06-06T17:24:09.598Z,964.29
2016-06-06T17:25:09.601Z,964.33
2016-06-06T17:26:09.618Z,964.36
2016-06-06T17:27:09.621Z,964.39
2016-06-06T17:28:09.640Z,964.34
2016-06-06T17:29:09.658Z,964.39
2016-06-06T17:30:09.834Z,964.39
2016-06-06T17:31:09.679Z,964.4
2016-06-06T17:32:09.681Z,964.39
2016-06-06T17:33:09.701Z,964.38
2016-06-06T17:34:09.719Z,964.41
2016-06-06T17:35:09.721Z,964.41
2016-06-06T17:36:09.739Z,964.41
2016-06-06T17:37:09.742Z,964.42
2016-06-06T17:38:09.760Z,964.41
2016-06-06T17:39:09.764Z,964.42
2016-06-06T17:40:09.781Z,964.44
2016-06-06T17:41:09.783Z,964.42
2016-06-06T17:42:09.803Z,964.48
2016-06-06T17:43:09.805Z,964.47
2016-06-06T17:44:09.824Z,964.51
2016-06-06T17:45:09.841Z,964.5
2016-06-06T17:46:09.845Z,964.51
2016-06-06T17:47:09.863Z,964.51
2016-06-06T17:48:09.865Z,964.51
2016-06-06T17:49:09.885Z,964.49
2016-06-06T17:50:09.902Z,964.52
2016-06-06T17:51:09.920Z,964.5
2016-06-06T17:52:09.923Z,964.44
2016-06-06T17:53:09.926Z,964.53
2016-06-06T17:54:09.944Z,964.53
2016-06-06T17:55:09.946Z,964.5
2016-06-06T17:56:09.965Z,964.56
2016-06-06T17:57:09.968Z,964.55
2016-06-06T17:58:09.986Z,964.54
2016-06-06T17:59:09.989Z,964.51
2016-06-06T18:00:10.007Z,964.53
2016-06-06T18:01:10.010Z,964.52
2016-06-06T18:02:10.028Z,964.56
2016-06-06T18:03:10.047Z,964.56
2016-06-06T18:04:10.050Z,964.5
2016-06-06T18:05:10.067Z,964.55
2016-06-06T18:06:10.070Z,964.56
2016-06-06T18:07:10.089Z,964.54
2016-06-06T18:08:10.091Z,964.53
2016-06-06T18:09:10.109Z,964.55
2016-06-06T18:10:10.112Z,964.56
2016-06-06T18:11:10.130Z,964.58
2016-06-06T18:12:10.149Z,964.56
2016-06-06T18:13:10.152Z,964.59
2016-06-06T18:14:10.170Z,964.58
2016-06-06T18:15:10.172Z,964.58
2016-06-06T18:16:10.191Z,964.58
2016-06-06T18:17:10.194Z,964.6
2016-06-06T18:18:10.227Z,964.59
2016-06-06T18:19:10.230Z,964.64
2016-06-06T18:20:10.233Z,964.62
2016-06-06T18:21:10.252Z,964.62
2016-06-06T18:22:10.254Z,964.62
2016-06-06T18:23:10.272Z,964.59
2016-06-06T18:24:10.274Z,964.62
2016-06-06T18:25:10.294Z,964.61
2016-06-06T18:26:10.311Z,964.6
2016-06-06T18:27:10.314Z,964.65
2016-06-06T18:28:10.332Z,964.67
2016-06-06T18:29:10.351Z,964.67
2016-06-06T18:30:10.556Z,964.67
2016-06-06T18:31:10.373Z,964.69
2016-06-06T18:32:10.375Z,964.7
2016-06-06T18:33:10.392Z,964.7
2016-06-06T18:34:10.395Z,964.71
2016-06-06T18:35:10.414Z,964.76
2016-06-06T18:36:10.417Z,964.74
2016-06-06T18:37:10.434Z,964.74
2016-06-06T18:38:10.437Z,964.73
2016-06-06T18:39:10.456Z,964.77
2016-06-06T18:40:10.458Z,964.72
2016-06-06T18:41:10.477Z,964.77
2016-06-06T18:42:10.495Z,964.75
2016-06-06T18:43:10.497Z,964.75
2016-06-06T18:44:10.517Z,964.73
2016-06-06T18:45:10.519Z,964.73
2016-06-06T18:46:10.538Z,964.74
2016-06-06T18:47:10.540Z,964.74
2016-06-06T18:48:10.558Z,964.73
2016-06-06T18:49:10.577Z,964.76
2016-06-06T18:50:10.579Z,964.77
2016-06-06T18:51:10.582Z,964.8
2016-06-06T18:52:10.600Z,964.78
2016-06-06T18:53:10.619Z,964.8
2016-06-06T18:54:10.621Z,964.8
2016-06-06T18:55:10.639Z,964.85
2016-06-06T18:56:10.643Z,964.82
2016-06-06T18:57:10.660Z,964.87
2016-06-06T18:58:10.663Z,964.87
2016-06-06T18:59:10.682Z,964.87
2016-06-06T19:00:10.700Z,964.88
2016-06-06T19:01:10.702Z,964.92
2016-06-06T19:02:10.720Z,964.92
2016-06-06T19:03:10.723Z,964.92
2016-06-06T19:04:10.742Z,964.94
2016-06-06T19:05:10.744Z,965
2016-06-06T19:06:10.762Z,965.02
2016-06-06T19:07:10.781Z,965.02
2016-06-06T19:08:10.784Z,965
2016-06-06T19:09:10.802Z,965.03
2016-06-06T19:10:10.805Z,965.03
2016-06-06T19:11:10.839Z,965.08
2016-06-06T19:12:10.826Z,965.1
2016-06-06T19:13:10.860Z,965.12
2016-06-06T19:14:10.863Z,965.15
2016-06-06T19:15:10.880Z,965.15
2016-06-06T19:16:10.900Z,965.19
2016-06-06T19:17:10.886Z,965.15
2016-06-06T19:18:10.905Z,965.15
2016-06-06T19:19:10.907Z,965.22
2016-06-06T19:20:10.925Z,965.21
2016-06-06T19:21:10.928Z,965.22
2016-06-06T19:22:10.947Z,965.22
2016-06-06T19:23:10.949Z,965.19
2016-06-06T19:24:10.968Z,965.22
2016-06-06T19:25:10.985Z,965.21
2016-06-06T19:26:10.988Z,965.26
2016-06-06T19:27:11.007Z,965.3
2016-06-06T19:28:11.009Z,965.27
2016-06-06T19:29:11.028Z,965.33
2016-06-06T19:30:11.031Z,965.29
2016-06-06T19:31:11.049Z,965.35
2016-06-06T19:32:11.051Z,965.35
2016-06-06T19:33:11.070Z,965.35
2016-06-06T19:34:11.088Z,965.32
2016-06-06T19:35:11.090Z,965.36
2016-06-06T19:36:11.109Z,965.36
2016-06-06T19:37:11.112Z,965.34
2016-06-06T19:38:11.131Z,965.34
2016-06-06T19:39:11.133Z,965.41
2016-06-06T19:40:11.151Z,965.39
2016-06-06T19:41:11.154Z,965.4
2016-06-06T19:42:11.172Z,965.42
2016-06-06T19:43:11.175Z,965.42
2016-06-06T19:44:11.194Z,965.41
2016-06-06T19:45:11.211Z,965.42
2016-06-06T19:46:11.214Z,965.42
2016-06-06T19:47:11.233Z,965.42
2016-06-06T19:48:11.235Z,965.43
2016-06-06T19:49:11.628Z,965.4
2016-06-06T19:50:11.255Z,965.4
2016-06-06T19:51:11.274Z,965.39
2016-06-06T19:52:11.277Z,965.38
2016-06-06T19:53:11.296Z,965.37
2016-06-06T19:54:11.298Z,965.4
2016-06-06T19:55:11.316Z,965.4
2016-06-06T19:56:11.335Z,965.36
2016-06-06T19:57:11.338Z,965.37
2016-06-06T19:58:11.356Z,965.37
2016-06-06T19:59:11.359Z,965.37
2016-06-06T20:00:11.376Z,965.38
2016-06-06T20:01:11.395Z,965.39
2016-06-06T20:02:11.398Z,965.37
2016-06-06T20:03:11.400Z,965.38
2016-06-06T20:04:11.418Z,965.34
2016-06-06T20:05:11.438Z,965.39
2016-06-06T20:06:11.439Z,965.41
2016-06-06T20:07:11.459Z,965.44
2016-06-06T20:08:11.461Z,965.39
2016-06-06T20:09:11.479Z,965.41
2016-06-06T20:10:11.481Z,965.42
2016-06-06T20:11:11.500Z,965.43
2016-06-06T20:12:11.503Z,965.37
2016-06-06T20:13:11.521Z,965.42
2016-06-06T20:14:11.524Z,965.41
2016-06-06T20:15:11.558Z,965.42
2016-06-06T20:16:11.544Z,965.42
2016-06-06T20:17:11.563Z,965.4
2016-06-06T20:18:11.581Z,965.42
2016-06-06T20:19:11.584Z,965.44
2016-06-06T20:20:11.946Z,965.44
2016-06-06T20:21:11.606Z,965.47
2016-06-06T20:22:11.624Z,965.46
2016-06-06T20:23:11.626Z,965.54
2016-06-06T20:24:11.644Z,965.52
2016-06-06T20:25:11.647Z,965.52
2016-06-06T20:26:11.665Z,965.49
2016-06-06T20:27:11.668Z,965.51
2016-06-06T20:28:11.687Z,965.5
2016-06-06T20:29:11.705Z,965.5
2016-06-06T20:30:11.707Z,965.52
2016-06-06T20:31:11.726Z,965.48
2016-06-06T20:32:11.729Z,965.45
2016-06-06T20:33:11.747Z,965.48
2016-06-06T20:34:11.750Z,965.5
2016-06-06T20:35:11.971Z,965.49
2016-06-06T20:36:11.770Z,965.49
2016-06-06T20:37:11.789Z,965.45
2016-06-06T20:38:11.792Z,965.47
2016-06-06T20:39:11.809Z,965.42
2016-06-06T20:40:11.828Z,965.4
2016-06-06T20:41:11.831Z,965.43
2016-06-06T20:42:11.850Z,965.41
2016-06-06T20:43:11.852Z,965.41
2016-06-06T20:44:11.870Z,965.41
2016-06-06T20:45:11.872Z,965.41
2016-06-06T20:46:11.891Z,965.39
2016-06-06T20:47:11.894Z,965.4
2016-06-06T20:48:11.912Z,965.41
2016-06-06T20:49:11.914Z,965.38
2016-06-06T20:50:12.277Z,965.4
2016-06-06T20:51:11.951Z,965.41
2016-06-06T20:52:11.954Z,965.39
2016-06-06T20:53:11.972Z,965.39
2016-06-06T20:54:11.975Z,965.37
2016-06-06T20:55:11.993Z,965.38
2016-06-06T20:56:11.996Z,965.41
2016-06-06T20:57:12.015Z,965.4
2016-06-06T20:58:12.018Z,965.37
2016-06-06T20:59:12.035Z,965.37
2016-06-06T21:00:12.038Z,965.38
2016-06-06T21:01:12.057Z,965.36
2016-06-06T21:02:12.060Z,965.36
2016-06-06T21:03:12.078Z,965.39
2016-06-06T21:04:12.095Z,965.37
2016-06-06T21:05:12.098Z,965.4
2016-06-06T21:06:12.118Z,965.4
2016-06-06T21:07:12.120Z,965.38
2016-06-06T21:08:12.137Z,965.41
2016-06-06T21:09:12.140Z,965.37
2016-06-06T21:10:12.159Z,965.36
2016-06-06T21:11:12.162Z,965.35
2016-06-06T21:12:12.180Z,965.31
2016-06-06T21:13:12.183Z,965.32
2016-06-06T21:14:12.201Z,965.34
2016-06-06T21:15:12.220Z,965.35
2016-06-06T21:16:12.222Z,965.32